Time;durP1;ratioP1;P1;durP2;ratioP2;P2;SDS_P1;SDS_P2;PMS_P1;PMS_P2;Temp;Humidity;BMP_temperature;BMP_pressure;BME280_temperature;BME280_humidity;BME280_pressure;Samples;Min_cycle;Max_cycle;Signal;HPM_P1;HPM_P2
2024/01/08 05:12:36;;;;;;;16.60;7.60;;;;;;;-12.83;62.31;100208.57;105842;1259;60472;-74
2024/01/08 05:15:04;;;;;;;17.60;8.10;;;;;;;-12.83;62.30;100216.94;105767;1253;60518;-75
2024/01/08 05:17:32;;;;;;;18.20;8.20;;;;;;;-12.85;62.30;100216.44;105850;1253;73847;-75
2024/01/08 05:19:59;;;;;;;16.60;10.00;;;;;;;-12.81;62.12;100217.09;105802;1258;67897;-75
2024/01/08 05:22:27;;;;;;;15.10;8.50;;;;;;;-12.75;62.45;100221.65;105906;1253;72432;-74
2024/01/08 05:24:55;;;;;;;17.50;8.30;;;;;;;-12.72;62.21;100224.54;105880;1253;61415;-74
2024/01/08 05:27:22;;;;;;;15.70;8.40;;;;;;;-12.74;62.19;100226.42;105451;1253;60566;-73
2024/01/08 05:29:50;;;;;;;15.30;8.00;;;;;;;-12.74;62.16;100230.86;105728;1254;72641;-72
2024/01/08 05:32:17;;;;;;;17.80;9.00;;;;;;;-12.72;62.26;100236.65;105915;1253;68975;-75
2024/01/08 05:34:45;;;;;;;17.10;9.10;;;;;;;-12.81;62.14;100245.58;105949;1253;72671;-75
2024/01/08 05:37:12;;;;;;;18.50;9.30;;;;;;;-12.94;62.58;100237.29;105762;1253;60543;-75
2024/01/08 05:39:39;;;;;;;15.20;8.70;;;;;;;-13.08;62.40;100247.77;105844;1256;60434;-74
2024/01/08 05:42:07;;;;;;;16.70;8.30;;;;;;;-13.10;61.77;100249.82;105805;1259;73833;-74
2024/01/08 05:44:35;;;;;;;17.40;8.00;;;;;;;-13.08;61.78;100247.25;105798;1256;69418;-74
2024/01/08 05:47:02;;;;;;;15.20;8.80;;;;;;;-13.11;62.04;100255.80;105887;1257;71259;-74
2024/01/08 05:49:30;;;;;;;17.50;9.10;;;;;;;-13.16;61.91;100263.32;106093;1253;61023;-74
2024/01/08 05:51:57;;;;;;;12.60;7.70;;;;;;;-13.18;62.07;100270.67;106445;1253;60406;-71
2024/01/08 05:54:25;;;;;;;13.40;7.10;;;;;;;-13.17;62.67;100268.61;108247;1253;73856;-73
2024/01/08 05:56:53;;;;;;;14.00;7.40;;;;;;;-13.18;62.10;100268.78;108400;1253;69253;-72
2024/01/08 05:59:20;;;;;;;13.90;7.50;;;;;;;-13.17;62.07;100271.16;107499;1253;71239;-73
2024/01/08 06:01:48;;;;;;;16.30;7.60;;;;;;;-13.17;61.98;100276.96;107896;1253;60636;-74
2024/01/08 06:04:16;;;;;;;14.10;7.80;;;;;;;-13.16;61.95;100273.38;106049;1253;60450;-74
2024/01/08 06:06:43;;;;;;;17.10;7.70;;;;;;;-13.14;62.40;100282.75;105950;1253;74136;-75
2024/01/08 06:09:11;;;;;;;17.10;8.20;;;;;;;-13.13;62.08;100287.86;105804;1253;70018;-74
2024/01/08 06:11:38;;;;;;;12.20;7.10;;;;;;;-13.11;62.14;100288.02;105763;1253;71274;-74
2024/01/08 06:14:06;;;;;;;14.10;8.30;;;;;;;-13.11;61.72;100289.40;105868;1254;60543;-75
2024/01/08 06:16:35;;;;;;;15.20;7.30;;;;;;;-13.13;62.14;100298.26;105906;1259;60351;-76
2024/01/08 06:19:03;;;;;;;17.60;8.00;;;;;;;-13.11;62.32;100299.79;105933;1259;73805;-74
2024/01/08 06:21:31;;;;;;;18.60;8.40;;;;;;;-13.10;61.73;100301.82;105802;1254;70476;-74
2024/01/08 06:23:58;;;;;;;13.60;7.40;;;;;;;-13.13;61.62;100304.23;105740;1256;70141;-74
2024/01/08 06:26:28;;;;;;;20.60;8.10;;;;;;;-13.12;61.95;100307.29;105814;1256;60432;-74
2024/01/08 06:28:56;;;;;;;19.60;7.60;;;;;;;-13.06;62.01;100307.10;105760;1254;60476;-75
2024/01/08 06:31:23;;;;;;;14.40;6.80;;;;;;;-13.02;62.16;100311.34;105856;1257;73844;-75
2024/01/08 06:33:52;;;;;;;14.20;6.90;;;;;;;-12.98;61.80;100315.41;106099;1256;70447;-74
2024/01/08 06:36:20;;;;;;;14.20;7.50;;;;;;;-12.94;62.04;100323.94;105885;1258;70858;-74
2024/01/08 06:38:48;;;;;;;13.70;7.90;;;;;;;-12.87;62.28;100325.94;105803;1255;60505;-75
2024/01/08 06:41:15;;;;;;;14.70;8.20;;;;;;;-12.78;62.36;100328.13;105658;1253;60439;-75
2024/01/08 06:43:42;;;;;;;14.30;7.10;;;;;;;-12.71;61.89;100328.09;105720;1259;74072;-74
2024/01/08 06:46:10;;;;;;;15.40;6.80;;;;;;;-12.71;61.67;100329.11;105916;1259;69237;-75
2024/01/08 06:48:38;;;;;;;14.70;8.00;;;;;;;-12.74;61.21;100332.71;105692;1258;72917;-75
2024/01/08 06:51:06;;;;;;;17.10;8.00;;;;;;;-12.72;61.62;100334.91;105986;1254;60491;-75
2024/01/08 06:53:33;;;;;;;11.20;6.50;;;;;;;-12.68;61.58;100342.05;106678;1258;60345;-75
2024/01/08 06:56:01;;;;;;;15.90;8.30;;;;;;;-12.65;61.21;100339.48;108530;1256;73891;-74
2024/01/08 06:58:28;;;;;;;13.50;8.70;;;;;;;-12.64;61.25;100348.02;106188;1253;71000;-73
2024/01/08 07:00:56;;;;;;;13.00;8.00;;;;;;;-12.73;61.38;100346.85;105944;1255;72440;-74
2024/01/08 07:03:24;;;;;;;19.70;8.90;;;;;;;-12.84;61.44;100340.94;105908;1252;60512;-76
2024/01/08 07:05:52;;;;;;;14.90;7.80;;;;;;;-12.91;61.51;100347.29;105842;1254;61163;-74
2024/01/08 07:08:19;;;;;;;13.50;6.80;;;;;;;-12.86;61.65;100348.96;105606;1259;73699;-76
2024/01/08 07:10:47;;;;;;;17.50;7.40;;;;;;;-12.79;61.51;100349.79;105874;1253;67724;-75
2024/01/08 07:13:15;;;;;;;14.40;7.30;;;;;;;-12.73;61.73;100350.10;105800;1259;71395;-79
2024/01/08 07:15:46;;;;;;;18.80;9.20;;;;;;;-12.64;61.84;100350.40;105828;1259;60916;-79
2024/01/08 07:18:13;;;;;;;13.20;6.80;;;;;;;-12.59;61.78;100354.47;106302;1253;60534;-79
2024/01/08 07:20:41;;;;;;;14.70;7.90;;;;;;;-12.54;61.31;100355.98;106631;1253;72449;-76
2024/01/08 07:23:10;;;;;;;14.00;7.90;;;;;;;-12.50;61.62;100362.45;107831;1253;70593;-79
2024/01/08 07:25:38;;;;;;;12.00;6.60;;;;;;;-12.48;61.52;100361.26;107559;1254;74371;-79
2024/01/08 07:28:06;;;;;;;13.20;7.50;;;;;;;-12.41;61.52;100369.39;106162;1253;60956;-78
2024/01/08 07:30:34;;;;;;;13.70;6.60;;;;;;;-12.37;61.15;100363.91;106174;1253;60610;-78
2024/01/08 07:33:03;;;;;;;15.80;7.40;;;;;;;-12.40;61.17;100365.29;105931;1253;73091;-79
2024/01/08 07:35:31;;;;;;;13.10;6.40;;;;;;;-12.42;61.00;100365.30;105938;1259;68318;-79
2024/01/08 07:37:59;;;;;;;14.70;7.50;;;;;;;-12.40;60.84;100369.22;105789;1257;70794;-77
2024/01/08 07:40:26;;;;;;;12.40;7.00;;;;;;;-12.34;60.86;100369.35;105814;1258;60384;-78
2024/01/08 07:42:57;;;;;;;10.50;6.70;;;;;;;-12.32;60.75;100375.14;105956;1257;60626;-77
2024/01/08 07:45:26;;;;;;;13.70;6.90;;;;;;;-12.36;60.45;100378.24;105881;1259;75788;-78
2024/01/08 07:47:54;;;;;;;13.20;7.10;;;;;;;-12.35;60.64;100376.86;105938;1253;70303;-78
2024/01/08 07:50:22;;;;;;;15.70;7.30;;;;;;;-12.33;61.11;100382.31;106239;1259;71387;-78
2024/01/08 07:52:51;;;;;;;20.60;7.80;;;;;;;-12.29;61.03;100381.96;109182;1253;59598;-78
2024/01/08 07:55:19;;;;;;;14.90;7.40;;;;;;;-12.19;61.26;100378.83;108951;1253;59129;-79
2024/01/08 07:57:47;;;;;;;18.50;7.90;;;;;;;-12.04;60.80;100377.36;106608;1253;72560;-79
2024/01/08 08:00:15;;;;;;;20.00;8.10;;;;;;;-11.95;61.09;100375.24;106831;1258;71680;-79
2024/01/08 08:02:42;;;;;;;13.40;7.30;;;;;;;-11.94;61.03;100376.26;106597;1254;75081;-78
2024/01/08 08:05:10;;;;;;;16.30;7.90;;;;;;;-12.00;60.52;100371.01;105937;1258;60588;-77
2024/01/08 08:07:39;;;;;;;14.90;7.10;;;;;;;-12.09;60.53;100375.86;105980;1258;60569;-79
2024/01/08 08:10:07;;;;;;;13.50;7.80;;;;;;;-12.04;60.32;100373.77;106087;1258;73862;-78
2024/01/08 08:12:35;;;;;;;14.90;7.70;;;;;;;-11.97;60.36;100383.45;105874;1259;69433;-77
2024/01/08 08:15:03;;;;;;;16.50;7.00;;;;;;;-11.97;60.20;100384.48;106092;1255;72654;-77
2024/01/08 08:17:30;;;;;;;13.70;7.10;;;;;;;-11.95;60.57;100381.05;106101;1257;60568;-78
2024/01/08 08:19:58;;;;;;;14.20;6.70;;;;;;;-11.90;60.45;100382.88;106001;1256;60424;-77
2024/01/08 08:22:25;;;;;;;13.00;6.90;;;;;;;-11.81;60.42;100386.20;105954;1257;73031;-78
2024/01/08 08:24:53;;;;;;;14.40;7.20;;;;;;;-11.79;60.05;100395.60;105945;1257;70299;-77
2024/01/08 08:27:21;;;;;;;13.30;6.80;;;;;;;-11.78;60.28;100394.55;105784;1257;71411;-77
2024/01/08 08:29:48;;;;;;;15.30;7.50;;;;;;;-11.68;60.26;100389.19;105946;1257;61235;-76
2024/01/08 08:32:16;;;;;;;13.20;6.90;;;;;;;-11.58;60.43;100389.61;105779;1253;60541;-77
2024/01/08 08:34:44;;;;;;;15.90;7.40;;;;;;;-11.52;60.13;100392.81;105891;1254;72653;-77
2024/01/08 08:37:11;;;;;;;11.40;6.60;;;;;;;-11.53;59.87;100400.16;106041;1257;70431;-77
2024/01/08 08:39:39;;;;;;;14.40;7.80;;;;;;;-11.60;59.93;100397.15;106259;1258;71437;-77
2024/01/08 08:42:07;;;;;;;12.90;7.40;;;;;;;-11.69;60.04;100390.39;106122;1258;60522;-77
2024/01/08 08:44:35;;;;;;;15.10;7.30;;;;;;;-11.76;59.90;100393.69;106113;1253;60540;-79
2024/01/08 08:47:03;;;;;;;12.50;6.50;;;;;;;-11.67;59.82;100397.38;106492;1259;73769;-77
2024/01/08 08:49:30;;;;;;;13.60;6.40;;;;;;;-11.60;59.63;100400.58;108993;1255;68754;-77
2024/01/08 08:51:58;;;;;;;12.80;7.10;;;;;;;-11.55;60.08;100396.08;108814;1254;71177;-78
2024/01/08 08:54:26;;;;;;;14.80;7.00;;;;;;;-11.44;60.07;100398.89;107651;1253;60490;-77
2024/01/08 08:56:54;;;;;;;10.40;6.70;;;;;;;-11.33;60.00;100397.25;107431;1257;60348;-78
2024/01/08 08:59:21;;;;;;;16.30;6.90;;;;;;;-11.29;59.69;100392.77;106217;1260;72365;-78
2024/01/08 09:01:52;;;;;;;12.30;6.10;;;;;;;-11.31;59.48;100394.33;106202;1257;68948;-77
2024/01/08 09:04:20;;;;;;;11.60;6.10;;;;;;;-11.32;59.32;100394.67;106068;1257;72720;-77
2024/01/08 09:06:52;;;;;;;13.80;7.40;;;;;;;-11.40;59.28;100393.04;105898;1253;60514;-78
2024/01/08 09:09:24;;;;;;;14.60;7.60;;;;;;;-11.54;59.01;100385.80;106045;1258;60442;-77
2024/01/08 09:11:52;;;;;;;16.50;7.20;;;;;;;-11.70;59.38;100389.88;106325;1251;196862;-77
2024/01/08 09:16:26;;;;;;;13.50;7.30;;;;;;;-11.68;59.62;100392.09;103414;1292;600581;-78
2024/01/08 09:18:53;;;;;;;14.50;7.50;;;;;;;-11.76;59.79;100398.14;105502;1267;60179;-78
2024/01/08 09:21:21;;;;;;;14.50;7.20;;;;;;;-11.86;59.81;100395.64;105620;1270;58899;-78
2024/01/08 09:23:49;;;;;;;10.70;6.60;;;;;;;-11.78;59.90;100395.77;105232;1266;72470;-77
2024/01/08 09:26:16;;;;;;;15.50;6.30;;;;;;;-11.71;60.11;100395.70;105638;1257;71336;-76
2024/01/08 09:28:45;;;;;;;14.70;7.50;;;;;;;-11.64;60.32;100398.88;105794;1257;72076;-78
2024/01/08 09:31:12;;;;;;;11.90;6.60;;;;;;;-11.58;60.23;100400.20;105922;1257;163388;-76
2024/01/08 09:33:40;;;;;;;15.50;8.20;;;;;;;-11.56;60.28;100400.20;105961;1257;59828;-76
2024/01/08 09:36:08;;;;;;;13.20;7.30;;;;;;;-11.53;59.89;100397.60;108039;1252;73735;-78
2024/01/08 09:38:35;;;;;;;15.80;7.60;;;;;;;-11.48;60.21;100398.59;107574;1256;69209;-77
2024/01/08 09:41:04;;;;;;;14.50;6.70;;;;;;;-11.44;59.89;100398.90;105912;1257;72635;-76
2024/01/08 09:43:46;;;;;;;14.30;7.00;;;;;;;-11.46;59.77;100393.95;106948;1254;59548;-77
2024/01/08 09:46:18;;;;;;;13.30;7.70;;;;;;;-11.55;59.84;100387.88;109048;1252;59210;-77
2024/01/08 09:48:46;;;;;;;12.00;6.90;;;;;;;-11.60;59.87;100389.13;108524;1252;71972;-79
2024/01/08 09:51:14;;;;;;;12.70;7.40;;;;;;;-11.58;59.97;100382.42;106357;1255;68839;-77
2024/01/08 09:53:44;;;;;;;14.90;6.50;;;;;;;-11.46;59.80;100387.97;106161;1254;73755;-77
2024/01/08 09:56:11;;;;;;;10.90;6.50;;;;;;;-11.37;59.90;100387.20;105837;1254;60889;-77
2024/01/08 09:58:39;;;;;;;11.60;6.50;;;;;;;-11.32;59.88;100382.37;106403;1253;62192;-78
2024/01/08 10:01:07;;;;;;;12.50;5.90;;;;;;;-11.25;59.64;100382.31;106357;1254;72332;-77
2024/01/08 10:03:35;;;;;;;13.00;6.10;;;;;;;-11.21;59.64;100386.53;106056;1254;70370;-77
2024/01/08 10:06:09;;;;;;;11.60;6.70;;;;;;;-11.17;59.88;100378.45;105918;1254;71572;-79
2024/01/08 10:08:38;;;;;;;11.50;6.30;;;;;;;-11.10;59.92;100380.79;105758;1254;60988;-78
2024/01/08 10:11:07;;;;;;;14.40;7.50;;;;;;;-11.09;59.59;100383.16;105944;1257;61008;-79
2024/01/08 10:13:35;;;;;;;13.40;7.40;;;;;;;-11.10;59.57;100377.86;105874;1254;73570;-78
2024/01/08 10:16:03;;;;;;;12.20;6.90;;;;;;;-11.11;59.88;100375.14;105987;1253;72358;-78
2024/01/08 10:18:31;;;;;;;9.80;6.40;;;;;;;-11.12;59.47;100374.46;105774;1254;74409;-78
2024/01/08 10:21:20;;;;;;;13.20;7.10;;;;;;;-10.99;59.51;100371.41;105954;1254;59723;-79
2024/01/08 10:23:48;;;;;;;12.60;6.70;;;;;;;-10.86;59.67;100374.68;105976;1253;59654;-79
2024/01/08 10:26:18;;;;;;;13.90;6.80;;;;;;;-10.73;59.37;100374.88;106080;1257;73141;-79
2024/01/08 10:28:46;;;;;;;13.20;6.90;;;;;;;-10.66;59.42;100371.03;105945;1254;70236;-80
2024/01/08 10:31:17;;;;;;;12.40;6.60;;;;;;;-10.60;59.64;100371.30;106885;1254;71002;-79
2024/01/08 10:33:45;;;;;;;19.40;9.20;;;;;;;-10.48;59.52;100368.05;106477;1254;59704;-81
2024/01/08 10:36:13;;;;;;;14.10;6.70;;;;;;;-10.45;59.36;100367.34;106332;1254;59656;-78
2024/01/08 10:38:40;;;;;;;13.50;6.10;;;;;;;-10.53;59.07;100367.77;106560;1254;74029;-79
2024/01/08 10:41:08;;;;;;;13.10;6.50;;;;;;;-10.60;59.26;100366.84;106764;1254;70214;-80
2024/01/08 10:43:36;;;;;;;16.30;7.80;;;;;;;-10.61;59.61;100366.51;109243;1253;73822;-80
2024/01/08 10:46:04;;;;;;;13.40;7.00;;;;;;;-10.45;59.69;100363.05;109182;1253;62783;-79
2024/01/08 10:48:40;;;;;;;13.60;6.20;;;;;;;-10.24;59.51;100356.40;106731;1253;59555;-79
2024/01/08 10:51:09;;;;;;;13.00;7.20;;;;;;;-10.07;59.64;100357.85;106499;1254;72560;-79
2024/01/08 10:53:44;;;;;;;15.20;7.10;;;;;;;-9.83;59.77;100361.24;105946;1253;70505;-78
2024/01/08 10:56:16;;;;;;;11.40;6.40;;;;;;;-9.49;58.97;100362.56;106078;1256;72036;-79
2024/01/08 10:59:04;;;;;;;15.40;8.10;;;;;;;-9.18;58.83;100362.69;106070;1256;59570;-79
2024/01/08 11:01:32;;;;;;;13.90;7.60;;;;;;;-9.01;58.78;100362.04;105848;1253;59658;-79
2024/01/08 11:04:00;;;;;;;12.50;7.30;;;;;;;-8.97;58.46;100365.23;106058;1255;72313;-79
2024/01/08 11:06:28;;;;;;;13.20;7.30;;;;;;;-9.00;57.81;100366.14;105965;1256;70139;-79
2024/01/08 11:08:57;;;;;;;13.40;7.50;;;;;;;-9.11;57.84;100365.85;105858;1254;73211;-79
2024/01/08 11:11:25;;;;;;;13.70;7.40;;;;;;;-9.16;57.78;100364.21;106261;1254;60877;-80
2024/01/08 11:13:53;;;;;;;15.10;7.60;;;;;;;-9.04;57.97;100364.34;106971;1256;59644;-79
2024/01/08 11:16:28;;;;;;;17.70;9.20;;;;;;;-8.96;57.89;100367.95;106113;1259;74306;-79
2024/01/08 11:19:18;;;;;;;14.90;9.20;;;;;;;-8.80;58.23;100370.05;107793;1254;69478;-81
2024/01/08 11:21:50;;;;;;;13.20;8.20;;;;;;;-8.68;57.83;100370.16;106317;1256;74865;-78
2024/01/08 11:24:17;;;;;;;12.30;7.90;;;;;;;-8.72;57.67;100374.33;106230;1254;59654;-79
2024/01/08 11:26:47;;;;;;;13.20;7.90;;;;;;;-8.74;57.43;100373.87;106160;1257;59599;-79
2024/01/08 11:29:15;;;;;;;15.00;8.00;;;;;;;-8.79;57.48;100378.09;106005;1256;75272;-79
2024/01/08 11:31:46;;;;;;;20.90;8.90;;;;;;;-8.77;57.84;100374.10;105930;1254;70590;-74
2024/01/08 11:34:53;;;;;;;17.20;8.10;;;;;;;-8.61;57.79;100376.89;105912;1256;74248;-75
2024/01/08 11:37:44;;;;;;;14.50;7.00;;;;;;;-8.49;57.39;100384.20;106277;1254;59649;-75
2024/01/08 11:40:16;;;;;;;14.30;7.80;;;;;;;-8.52;57.44;100383.55;108717;1252;62192;-74
2024/01/08 11:42:49;;;;;;;12.10;7.00;;;;;;;-8.55;56.87;100380.68;108854;1254;71714;-74
2024/01/08 11:45:19;;;;;;;17.50;9.60;;;;;;;-8.67;56.74;100384.55;106392;1254;69245;-75
2024/01/08 11:47:47;;;;;;;20.50;10.70;;;;;;;-8.84;56.90;100389.19;106081;1254;74900;-77
2024/01/08 11:50:15;;;;;;;21.80;10.20;;;;;;;-9.07;56.93;100385.32;105931;1257;59572;-75
2024/01/08 11:52:43;;;;;;;19.50;9.20;;;;;;;-9.27;57.34;100385.52;106585;1254;60499;-76
2024/01/08 11:55:11;;;;;;;16.90;9.00;;;;;;;-9.33;57.72;100390.77;105867;1259;72768;-75
2024/01/08 11:57:39;;;;;;;14.00;7.40;;;;;;;-9.22;57.98;100388.33;105768;1254;70140;-74
2024/01/08 12:00:13;;;;;;;14.40;7.90;;;;;;;-9.18;57.84;100386.90;105858;1254;71512;-75
2024/01/08 12:02:40;;;;;;;13.70;8.10;;;;;;;-9.19;58.01;100385.55;105928;1254;59937;-73
2024/01/08 12:05:09;;;;;;;16.00;7.70;;;;;;;-9.25;58.07;100389.27;105892;1254;60977;-73
2024/01/08 12:07:40;;;;;;;16.80;8.40;;;;;;;-9.48;57.66;100392.75;106073;1257;73415;-73
2024/01/08 12:10:08;;;;;;;15.90;7.20;;;;;;;-9.79;57.81;100393.77;105849;1254;71565;-75
2024/01/08 12:12:36;;;;;;;15.30;6.90;;;;;;;-10.06;58.19;100398.45;105769;1254;72395;-74
2024/01/08 12:15:04;;;;;;;14.60;8.10;;;;;;;-10.23;58.36;100404.50;105960;1254;59647;-72
2024/01/08 12:17:32;;;;;;;19.40;7.40;;;;;;;-10.30;58.53;100406.34;105892;1254;61006;-72
2024/01/08 12:20:01;;;;;;;20.60;9.60;;;;;;;-10.38;58.68;100403.37;105928;1256;71765;-75
2024/01/08 12:22:29;;;;;;;18.10;10.90;;;;;;;-10.54;58.96;100412.65;105951;1254;72978;-75
2024/01/08 12:24:57;;;;;;;15.70;8.90;;;;;;;-10.62;59.22;100420.61;105816;1254;74072;-74
2024/01/08 12:27:31;;;;;;;13.50;7.90;;;;;;;-10.62;59.70;100421.30;105938;1257;59690;-74
2024/01/08 12:29:59;;;;;;;14.50;7.90;;;;;;;-10.63;59.67;100429.38;105878;1254;61030;-73
2024/01/08 12:32:27;;;;;;;14.10;6.90;;;;;;;-10.73;59.77;100428.80;105729;1254;73818;-74
2024/01/08 12:34:56;;;;;;;13.70;7.00;;;;;;;-10.85;59.84;100430.46;106364;1253;70289;-75
2024/01/08 12:37:32;;;;;;;12.30;5.80;;;;;;;-10.99;59.82;100433.86;107820;1253;72489;-79
2024/01/08 12:40:04;;;;;;;13.30;5.80;;;;;;;-11.05;59.46;100440.08;108843;1257;62657;-78
2024/01/08 12:42:34;;;;;;;13.90;6.00;;;;;;;-11.01;59.58;100447.22;107564;1253;59653;-78
2024/01/08 12:45:04;;;;;;;13.20;6.80;;;;;;;-10.96;59.76;100448.38;106920;1254;73299;-78
2024/01/08 12:47:32;;;;;;;14.90;8.10;;;;;;;-10.91;60.07;100454.31;106617;1254;70946;-77
2024/01/08 12:50:00;;;;;;;13.80;6.60;;;;;;;-10.92;60.01;100453.14;106914;1257;72692;-80
2024/01/08 12:52:27;;;;;;;11.40;6.10;;;;;;;-11.03;59.78;100455.97;106561;1254;59755;-79
2024/01/08 12:54:55;;;;;;;11.50;5.10;;;;;;;-11.14;59.57;100458.98;106771;1259;59452;-79
2024/01/08 12:57:28;;;;;;;13.70;6.80;;;;;;;-11.29;59.30;100456.21;106558;1257;72069;-79
2024/01/08 12:59:56;;;;;;;9.10;5.50;;;;;;;-11.28;59.20;100460.46;106297;1257;69260;-76
2024/01/08 13:02:30;;;;;;;11.10;6.20;;;;;;;-11.23;59.54;100465.05;105884;1257;73895;-78
2024/01/08 13:04:59;;;;;;;12.90;6.50;;;;;;;-11.16;59.79;100465.00;105893;1254;61585;-78
2024/01/08 13:07:26;;;;;;;12.90;6.10;;;;;;;-11.08;59.80;100468.16;105925;1254;59714;-78
2024/01/08 13:09:54;;;;;;;10.80;5.90;;;;;;;-10.98;59.80;100471.14;105831;1259;72944;-78
2024/01/08 13:12:21;;;;;;;12.40;6.10;;;;;;;-10.91;59.48;100475.52;105870;1254;68934;-79
2024/01/08 13:14:49;;;;;;;11.00;5.40;;;;;;;-10.89;59.38;100473.11;105998;1255;70201;-77
2024/01/08 13:17:17;;;;;;;9.70;5.50;;;;;;;-10.97;59.27;100476.27;106802;1254;60228;-79
2024/01/08 13:19:44;;;;;;;12.20;5.60;;;;;;;-11.08;59.43;100477.23;108970;1254;62162;-78
2024/01/08 13:22:12;;;;;;;11.90;5.80;;;;;;;-11.16;59.37;100477.98;106325;1253;74021;-78
2024/01/08 13:24:40;;;;;;;12.10;5.90;;;;;;;-11.18;59.49;100480.58;105888;1254;72139;-76
2024/01/08 13:27:12;;;;;;;12.90;6.40;;;;;;;-11.12;59.42;100473.34;105769;1254;74938;-77
2024/01/08 13:29:41;;;;;;;14.40;5.90;;;;;;;-11.10;59.58;100479.82;106030;1254;61191;-76
2024/01/08 13:32:09;;;;;;;10.70;6.00;;;;;;;-11.07;59.91;100481.15;106217;1254;60476;-76
2024/01/08 13:34:38;;;;;;;11.60;6.40;;;;;;;-11.03;60.02;100478.22;107830;1253;73846;-76
2024/01/08 13:37:06;;;;;;;13.00;7.00;;;;;;;-11.00;60.31;100482.46;109027;1253;68790;-77
2024/01/08 13:39:35;;;;;;;15.30;7.00;;;;;;;-10.98;60.49;100484.16;107256;1260;71474;-76
2024/01/08 13:42:03;;;;;;;14.90;7.60;;;;;;;-11.06;60.18;100484.41;106182;1252;61644;-76
2024/01/08 13:44:30;;;;;;;13.30;7.10;;;;;;;-11.19;60.27;100485.88;106040;1259;60419;-76
2024/01/08 13:47:01;;;;;;;13.60;6.20;;;;;;;-11.29;60.56;100488.36;105890;1254;76028;-76
2024/01/08 13:49:29;;;;;;;9.70;4.80;;;;;;;-11.29;60.58;100493.48;105806;1259;70446;-76
2024/01/08 13:51:57;;;;;;;9.30;5.50;;;;;;;-11.26;60.28;100496.38;105926;1253;71637;-76
2024/01/08 13:54:24;;;;;;;12.80;6.10;;;;;;;-11.31;60.38;100499.83;106167;1253;63077;-75
2024/01/08 13:56:52;;;;;;;14.20;7.00;;;;;;;-11.34;60.62;100502.92;106066;1254;62671;-77
2024/01/08 13:59:20;;;;;;;11.20;5.50;;;;;;;-11.35;60.57;100514.75;106196;1254;76020;-78
2024/01/08 14:01:47;;;;;;;9.90;5.60;;;;;;;-11.33;60.66;100507.20;106021;1259;71543;-78
2024/01/08 14:04:15;;;;;;;10.50;5.40;;;;;;;-11.35;60.68;100515.94;105999;1254;74452;-78
2024/01/08 14:06:42;;;;;;;13.80;6.10;;;;;;;-11.45;60.98;100515.48;105930;1254;60543;-78
2024/01/08 14:09:12;;;;;;;16.40;7.40;;;;;;;-11.56;60.94;100515.40;105800;1254;62090;-78
2024/01/08 14:11:40;;;;;;;18.70;7.40;;;;;;;-11.68;60.83;100518.73;105776;1259;76005;-79
2024/01/08 14:14:08;;;;;;;13.50;6.00;;;;;;;-11.64;61.01;100518.70;105871;1254;70897;-78
2024/01/08 14:16:35;;;;;;;10.30;5.20;;;;;;;-11.60;61.16;100525.67;106261;1254;74659;-77
2024/01/08 14:19:03;;;;;;;9.60;5.10;;;;;;;-11.59;61.49;100522.95;106312;1258;60869;-78
2024/01/08 14:21:30;;;;;;;11.60;4.20;;;;;;;-11.57;61.51;100519.52;106628;1257;62183;-77
2024/01/08 14:23:58;;;;;;;9.90;4.50;;;;;;;-11.54;61.77;100520.67;106416;1254;76120;-78
2024/01/08 14:26:25;;;;;;;7.70;4.40;;;;;;;-11.54;61.94;100527.87;106709;1256;70513;-77
2024/01/08 14:28:54;;;;;;;14.10;5.70;;;;;;;-11.56;61.98;100530.95;107165;1252;71299;-77
2024/01/08 14:31:22;;;;;;;12.10;5.40;;;;;;;-11.65;62.03;100530.83;108207;1254;59489;-78
2024/01/08 14:33:49;;;;;;;15.30;5.80;;;;;;;-11.72;62.53;100537.04;108927;1252;60007;-78
2024/01/08 14:36:19;;;;;;;13.80;7.30;;;;;;;-11.80;62.61;100543.39;108429;1253;72664;-79
2024/01/08 14:38:46;;;;;;;20.70;7.00;;;;;;;-11.77;62.84;100545.78;108103;1252;71827;-80
2024/01/08 14:41:14;;;;;;;17.00;7.00;;;;;;;-11.63;63.03;100546.73;107580;1251;75105;-79
2024/01/08 14:43:43;;;;;;;20.30;6.60;;;;;;;-11.55;62.98;100548.20;106850;1254;60508;-80
2024/01/08 14:46:12;;;;;;;13.90;6.90;;;;;;;-11.48;63.05;100549.55;106315;1257;62271;-82
2024/01/08 14:48:39;;;;;;;15.60;6.50;;;;;;;-11.41;63.41;100548.13;105936;1261;76230;-81
2024/01/08 14:51:09;;;;;;;16.50;7.40;;;;;;;-11.39;63.27;100552.21;106383;1252;72362;-81
2024/01/08 14:53:40;;;;;;;17.00;6.50;;;;;;;-11.47;63.64;100551.08;106440;1254;74934;-81
2024/01/08 14:56:08;;;;;;;17.30;7.50;;;;;;;-11.58;63.74;100552.00;106341;1254;61990;-81
2024/01/08 14:58:39;;;;;;;11.20;6.00;;;;;;;-11.69;63.75;100561.27;106468;1251;60325;-81
2024/01/08 15:01:08;;;;;;;17.60;6.70;;;;;;;-11.64;63.89;100556.65;106564;1257;74980;-82
2024/01/08 15:03:36;;;;;;;17.10;6.30;;;;;;;-11.53;63.96;100561.37;106736;1254;71040;-83
2024/01/08 15:06:04;;;;;;;16.70;6.80;;;;;;;-11.46;63.77;100559.96;106341;1254;73066;-81
2024/01/08 15:08:33;;;;;;;22.80;7.20;;;;;;;-11.47;63.98;100563.05;106394;1253;62944;-82
2024/01/08 15:11:06;;;;;;;24.80;8.80;;;;;;;-11.50;64.10;100566.64;106390;1259;60559;-81
2024/01/08 15:13:34;;;;;;;26.50;9.20;;;;;;;-11.49;64.26;100572.27;106352;1252;72845;-82
2024/01/08 15:16:03;;;;;;;17.50;7.70;;;;;;;-11.51;64.38;100572.81;106092;1253;70336;-80
2024/01/08 15:18:33;;;;;;;19.00;7.50;;;;;;;-11.60;64.71;100579.19;107450;1254;74677;-78
2024/01/08 15:21:03;;;;;;;20.10;8.80;;;;;;;-11.70;64.83;100581.45;107312;1256;60363;-82
2024/01/08 15:23:33;;;;;;;16.80;7.20;;;;;;;-11.79;64.76;100585.60;105544;1252;1003759;-80
2024/01/08 15:26:01;;;;;;;16.70;6.20;;;;;;;-11.73;64.70;100587.45;106373;1254;74038;-80
2024/01/08 15:28:29;;;;;;;14.60;6.00;;;;;;;-11.64;64.82;100589.13;107019;1254;72668;-82
2024/01/08 15:31:00;;;;;;;14.40;7.20;;;;;;;-11.62;64.35;100595.60;108341;1253;73625;-81
2024/01/08 15:33:29;;;;;;;12.10;6.20;;;;;;;-11.65;64.51;100600.06;109237;1252;61944;-82
2024/01/08 15:35:59;;;;;;;15.30;6.80;;;;;;;-11.65;64.70;100606.04;108276;1254;60212;-81
2024/01/08 15:38:26;;;;;;;16.60;8.60;;;;;;;-11.60;64.74;100604.31;106991;1254;73846;-80
2024/01/08 15:40:54;;;;;;;16.20;7.80;;;;;;;-11.65;64.53;100609.45;106798;1253;72187;-79
2024/01/08 15:43:23;;;;;;;17.50;7.80;;;;;;;-11.77;64.56;100613.45;106289;1254;74505;-79
2024/01/08 15:45:54;;;;;;;16.30;8.10;;;;;;;-11.90;64.67;100621.89;106193;1252;60667;-80
2024/01/08 15:48:22;;;;;;;13.70;5.90;;;;;;;-11.94;64.52;100626.01;106159;1253;61963;-79
2024/01/08 15:50:52;;;;;;;13.50;6.40;;;;;;;-11.86;64.45;100628.35;106307;1253;74748;-81
2024/01/08 15:53:21;;;;;;;13.90;6.40;;;;;;;-11.83;64.26;100627.66;105999;1257;70603;-80
2024/01/08 15:55:50;;;;;;;13.90;6.40;;;;;;;-11.83;64.50;100632.44;106794;1254;74818;-81
2024/01/08 15:58:18;;;;;;;12.70;5.90;;;;;;;-11.87;64.28;100635.20;107349;1253;60931;-81
2024/01/08 16:00:46;;;;;;;12.40;6.00;;;;;;;-11.91;64.20;100647.20;106764;1254;62258;-81
2024/01/08 16:03:16;;;;;;;16.90;6.70;;;;;;;-11.89;64.23;100650.77;105920;1259;73985;-80
2024/01/08 16:05:43;;;;;;;10.60;6.30;;;;;;;-11.87;64.38;100654.48;106081;1257;71681;-80
2024/01/08 16:08:13;;;;;;;13.80;5.90;;;;;;;-11.93;64.13;100660.34;105827;1256;70445;-80
2024/01/08 16:10:41;;;;;;;15.70;6.30;;;;;;;-12.05;64.11;100662.77;105988;1256;60485;-81
2024/01/08 16:13:09;;;;;;;9.90;5.50;;;;;;;-12.17;64.19;100671.17;105887;1253;60938;-81
2024/01/08 16:15:37;;;;;;;12.90;6.20;;;;;;;-12.14;63.91;100672.69;105823;1258;74433;-80
2024/01/08 16:18:05;;;;;;;19.00;8.10;;;;;;;-12.10;63.82;100676.45;106338;1254;71070;-80
2024/01/08 16:20:33;;;;;;;22.30;8.60;;;;;;;-12.08;63.90;100680.71;106453;1252;71340;-81
2024/01/08 16:23:00;;;;;;;16.10;6.90;;;;;;;-12.03;64.09;100684.80;106021;1257;60548;-82